EGCC/MAN METAR and TAF weather

Enter ICAO airport designator
Station Type Date Time Source
EGCC METAR 2019/11/18 04:20 UTC NOAA

EGCC 180420Z VRB01KT CAVOK 02/02 Q1017


Station Type Date Time Source
EGCC Decoded METAR 2019/11/18 04:20 UTC NOAA

Manchester Airport, United Kingdom (EGCC) 53-21N 002-17W 0M
Nov 17, 2019 - 11:20 PM EST / 2019.11.18 0420 UTC
Wind: Variable at 1 MPH (1 KT):0
Visibility: greater than 7 mile(s):0
Temperature: 35 F (2 C)
Dew Point: 35 F (2 C)
Relative Humidity: 100%
Pressure (altimeter): 30.03 in. Hg (1017 hPa)
ob: EGCC 180420Z VRB01KT CAVOK 02/02 Q1017
cycle: 4

Station Type Date Time Source
EGCC TAF 2019/11/18 03:36 UTC NOAA

TAF
AMD EGCC 180330Z 1803/1906 32005KT 9999 FEW035
TEMPO 1803/1810 3000 BR MIFG PROB30
TEMPO 1803/1809 0300 FG FZFG
BECMG 1818/1821 3000 BR PROB40 1821/1906 0300 FZFG

Example: see airport list